Time;durP1;ratioP1;P1;durP2;ratioP2;P2;SDS_P1;SDS_P2;PMS_P1;PMS_P2;Temp;Humidity;BMP_temperature;BMP_pressure;BME280_temperature;BME280_humidity;BME280_pressure;Samples;Min_cycle;Max_cycle;Signal;HPM_P1;HPM_P2
2023/02/08 00:00:07;;;;;;;15.43;6.87;;;;;;;-6.08;100.00;97633.09;1022014;29;20071;-67
2023/02/08 00:00:38;;;;;;;20.00;7.80;;;;;;;-6.07;100.00;97633.91;1021965;29;20032;-67
2023/02/08 00:01:09;;;;;;;15.93;6.93;;;;;;;-6.08;100.00;97630.56;1030681;28;20611;-66
2023/02/08 00:01:42;;;;;;;15.40;7.22;;;;;;;-6.09;100.00;97634.03;1038143;28;20025;-67
2023/02/08 00:02:15;;;;;;;15.43;7.00;;;;;;;-6.16;100.00;97612.41;1038990;28;20033;-66
2023/02/08 00:02:46;;;;;;;14.10;6.88;;;;;;;-6.07;100.00;97636.47;1032900;28;20034;-66
2023/02/08 00:03:19;;;;;;;17.77;7.57;;;;;;;-6.10;100.00;97629.88;1027619;28;20023;-66
2023/02/08 00:03:49;;;;;;;14.85;6.85;;;;;;;-6.11;100.00;97629.97;1030701;28;20018;-66
2023/02/08 00:04:20;;;;;;;15.20;6.30;;;;;;;-6.10;100.00;97631.59;1030884;28;20030;-68
2023/02/08 00:04:50;;;;;;;17.47;7.30;;;;;;;-6.18;100.00;97625.28;1022162;29;20054;-66
2023/02/08 00:05:21;;;;;;;13.67;7.00;;;;;;;-6.10;100.00;97634.97;1030753;28;20026;-66
2023/02/08 00:05:51;;;;;;;19.77;7.00;;;;;;;-6.11;100.00;97638.44;1022755;29;20043;-65
2023/02/08 00:06:22;;;;;;;16.60;7.27;;;;;;;-6.18;100.00;97624.47;1018905;29;20031;-66
2023/02/08 00:06:55;;;;;;;19.27;6.63;;;;;;;-6.05;100.00;97630.34;1022018;28;20796;-66
2023/02/08 00:07:25;;;;;;;15.35;6.90;;;;;;;-6.08;100.00;97622.06;1027199;28;20045;-64
2023/02/08 00:07:59;;;;;;;15.63;6.67;;;;;;;-6.06;100.00;97631.25;1034964;28;20060;-66
2023/02/08 00:08:30;;;;;;;16.70;7.80;;;;;;;-6.05;100.00;97627.78;1034207;28;20038;-64
2023/02/08 00:09:01;;;;;;;16.23;7.40;;;;;;;-6.04;100.00;97629.41;1034403;28;20034;-67
2023/02/08 00:09:32;;;;;;;14.77;7.50;;;;;;;-6.08;100.00;97628.00;1034765;28;20030;-66
2023/02/08 00:10:05;;;;;;;15.43;7.43;;;;;;;-6.02;100.00;97626.75;1030335;28;20120;-68
2023/02/08 00:10:35;;;;;;;20.52;7.93;;;;;;;-6.03;100.00;97625.94;1022469;29;20028;-65
2023/02/08 00:11:06;;;;;;;22.37;7.77;;;;;;;-6.04;100.00;97618.38;1026006;28;20050;-66
2023/02/08 00:11:37;;;;;;;16.90;7.30;;;;;;;-5.98;100.00;97626.41;1021203;29;20118;-65
2023/02/08 00:12:07;;;;;;;15.87;6.77;;;;;;;-6.00;100.00;97635.94;1027967;28;20081;-66
2023/02/08 00:12:38;;;;;;;16.20;7.07;;;;;;;-6.04;100.00;97637.06;1030949;28;20034;-66
2023/02/08 00:13:08;;;;;;;14.57;6.70;;;;;;;-6.03;100.00;97631.03;1033711;28;20049;-66
2023/02/08 00:13:39;;;;;;;16.77;7.33;;;;;;;-6.03;100.00;97636.16;1030926;28;20022;-68
2023/02/08 00:14:10;;;;;;;16.15;6.72;;;;;;;-6.00;100.00;97635.94;1038892;28;20036;-65
2023/02/08 00:14:40;;;;;;;15.30;6.80;;;;;;;-6.02;100.00;97626.75;1034588;28;20029;-68
2023/02/08 00:15:11;;;;;;;16.57;7.60;;;;;;;-6.03;100.00;97627.69;1026885;28;20618;-68
2023/02/08 00:15:42;;;;;;;15.67;6.87;;;;;;;-6.03;100.00;97625.94;1032669;28;20026;-66
2023/02/08 00:16:13;;;;;;;17.50;7.22;;;;;;;-6.07;100.00;97621.97;1030283;28;20133;-68
2023/02/08 00:16:44;;;;;;;22.33;7.77;;;;;;;-6.04;100.00;97621.72;1033763;28;20075;-67
2023/02/08 00:17:14;;;;;;;16.70;7.13;;;;;;;-6.04;100.00;97623.47;1029585;28;20026;-66
2023/02/08 00:17:44;;;;;;;13.30;6.87;;;;;;;-6.03;100.00;97615.72;1026285;28;20014;-68
2023/02/08 00:18:15;;;;;;;15.03;6.87;;;;;;;-6.00;100.00;97615.50;1026362;28;20162;-67
2023/02/08 00:18:45;;;;;;;16.60;6.83;;;;;;;-5.92;100.00;97622.56;1026495;28;20029;-64
2023/02/08 00:19:16;;;;;;;14.63;7.13;;;;;;;-5.93;100.00;97615.84;1030497;28;20038;-66
2023/02/08 00:19:46;;;;;;;18.40;7.57;;;;;;;-5.96;100.00;97616.88;1030363;28;20573;-66
2023/02/08 00:20:17;;;;;;;16.83;7.37;;;;;;;-6.01;100.00;97608.72;1026535;28;20078;-67
2023/02/08 00:20:48;;;;;;;20.17;8.73;;;;;;;-5.95;100.00;97617.69;1033562;28;20029;-66
2023/02/08 00:21:18;;;;;;;16.17;7.27;;;;;;;-5.98;100.00;97615.38;1030390;28;20025;-66
2023/02/08 00:21:52;;;;;;;11.57;6.33;;;;;;;-5.99;100.00;97621.41;1026542;28;20650;-67
2023/02/08 00:22:22;;;;;;;15.32;7.00;;;;;;;-6.05;100.00;97604.78;1030199;28;20022;-67
2023/02/08 00:22:53;;;;;;;18.27;7.73;;;;;;;-6.01;100.00;97607.91;1031841;28;20784;-68
2023/02/08 00:23:24;;;;;;;12.80;6.63;;;;;;;-6.01;100.00;97608.72;1039266;28;20029;-63
2023/02/08 00:23:57;;;;;;;16.17;7.10;;;;;;;-6.01;100.00;97607.91;1034096;28;20026;-63
2023/02/08 00:24:28;;;;;;;18.17;7.70;;;;;;;-6.04;100.00;97613.25;1030210;28;20026;-65
2023/02/08 00:24:58;;;;;;;14.07;6.60;;;;;;;-6.11;100.00;97597.56;1026901;28;20027;-67
2023/02/08 00:25:29;;;;;;;15.30;6.93;;;;;;;-6.06;100.00;97610.00;1022596;28;20031;-68
2023/02/08 00:25:59;;;;;;;15.50;7.43;;;;;;;-6.07;100.00;97605.81;1025848;28;20564;-65
2023/02/08 00:26:30;;;;;;;16.53;7.27;;;;;;;-6.09;100.00;97615.34;1026806;28;20089;-66
2023/02/08 00:27:00;;;;;;;14.60;6.70;;;;;;;-6.06;100.00;97615.13;1029890;28;20484;-65
2023/02/08 00:27:31;;;;;;;16.90;7.03;;;;;;;-6.06;100.00;97612.56;1034624;28;20041;-67
2023/02/08 00:28:01;;;;;;;17.83;7.63;;;;;;;-6.10;100.00;97609.44;1034825;28;20033;-65
2023/02/08 00:28:32;;;;;;;21.20;7.63;;;;;;;-6.12;100.00;97605.34;1030835;28;20553;-66
2023/02/08 00:29:02;;;;;;;13.77;7.07;;;;;;;-6.11;100.00;97605.22;1030590;28;20064;-67
2023/02/08 00:29:33;;;;;;;16.70;6.73;;;;;;;-6.07;100.00;97608.38;1034394;28;20022;-68
2023/02/08 00:30:04;;;;;;;16.17;7.73;;;;;;;-6.09;100.00;97605.13;1030652;28;20029;-65
2023/02/08 00:30:34;;;;;;;16.77;7.50;;;;;;;-6.06;100.00;97610.00;1026752;28;20397;-66
2023/02/08 00:31:05;;;;;;;16.07;8.03;;;;;;;-6.08;100.00;97604.19;1030484;28;20100;-66
2023/02/08 00:31:35;;;;;;;16.13;7.63;;;;;;;-6.10;100.00;97609.44;1034881;28;20034;-65
2023/02/08 00:32:06;;;;;;;17.37;7.60;;;;;;;-6.13;100.00;97609.66;1038714;28;20037;-66
2023/02/08 00:32:36;;;;;;;18.03;7.33;;;;;;;-6.15;100.00;97610.69;1040455;28;20040;-67
2023/02/08 00:33:07;;;;;;;15.63;7.43;;;;;;;-6.21;100.00;97606.81;1034824;28;20029;-67
2023/02/08 00:33:37;;;;;;;17.80;7.40;;;;;;;-6.19;100.00;97613.44;1030808;28;20738;-66
2023/02/08 00:34:08;;;;;;;15.43;7.67;;;;;;;-6.26;100.00;97607.16;1030309;28;20026;-65
2023/02/08 00:34:38;;;;;;;15.30;7.57;;;;;;;-6.19;100.00;97604.97;1030777;28;20032;-65
2023/02/08 00:35:09;;;;;;;14.33;7.27;;;;;;;-6.21;100.00;97612.75;1026932;28;20023;-66
2023/02/08 00:35:41;;;;;;;19.67;7.80;;;;;;;-6.24;100.00;97605.28;1030888;28;20022;-67
2023/02/08 00:36:11;;;;;;;16.40;7.90;;;;;;;-6.23;100.00;97614.59;1022542;28;20030;-68
2023/02/08 00:36:42;;;;;;;19.03;7.97;;;;;;;-6.26;100.00;97614.03;1022139;29;20035;-63
2023/02/08 00:37:12;;;;;;;14.77;7.10;;;;;;;-6.23;100.00;97608.69;1022771;29;20104;-67
2023/02/08 00:37:42;;;;;;;18.00;8.40;;;;;;;-6.22;100.00;97606.00;1020860;28;20422;-65
2023/02/08 00:38:13;;;;;;;17.60;7.60;;;;;;;-6.23;100.00;97603.59;1026053;28;20031;-66
2023/02/08 00:38:43;;;;;;;17.10;7.60;;;;;;;-6.22;100.00;97605.19;1029831;28;20062;-65
2023/02/08 00:39:14;;;;;;;14.80;6.87;;;;;;;-6.22;100.00;97612.88;1030321;28;20516;-65
2023/02/08 00:39:44;;;;;;;17.63;8.23;;;;;;;-6.24;100.00;97600.19;1029858;28;20038;-66
2023/02/08 00:40:15;;;;;;;19.13;7.67;;;;;;;-6.23;100.00;97611.25;1030600;28;20033;-66
2023/02/08 00:40:45;;;;;;;16.30;7.07;;;;;;;-6.25;100.00;97610.53;1023720;28;20028;-67
2023/02/08 00:41:16;;;;;;;16.70;7.50;;;;;;;-6.25;100.00;97607.97;1027789;28;20046;-64
2023/02/08 00:41:46;;;;;;;15.83;7.13;;;;;;;-6.27;100.00;97609.81;1030962;28;20508;-66
2023/02/08 00:42:17;;;;;;;18.23;8.37;;;;;;;-6.28;100.00;97606.44;1030720;28;20019;-67
2023/02/08 00:42:47;;;;;;;16.87;7.00;;;;;;;-6.26;100.00;97606.34;1032791;28;20141;-68
2023/02/08 00:43:21;;;;;;;18.63;7.20;;;;;;;-6.22;100.00;97610.31;1026561;28;20030;-67
2023/02/08 00:43:52;;;;;;;16.27;6.90;;;;;;;-6.22;100.00;97611.13;1018617;29;20028;-66
2023/02/08 00:44:22;;;;;;;16.17;7.73;;;;;;;-6.31;100.00;97601.56;1019090;29;20031;-66
2023/02/08 00:44:53;;;;;;;18.23;7.53;;;;;;;-6.27;100.00;97605.53;1023750;28;20274;-67
2023/02/08 00:45:23;;;;;;;17.33;7.40;;;;;;;-6.27;100.00;97608.09;1031113;28;20499;-65
2023/02/08 00:45:57;;;;;;;19.08;8.10;;;;;;;-6.23;100.00;97609.50;1030669;28;20035;-65
2023/02/08 00:46:28;;;;;;;14.30;6.65;;;;;;;-6.25;100.00;97607.97;1030639;28;20032;-66
2023/02/08 00:47:01;;;;;;;15.57;7.38;;;;;;;-6.28;100.00;97606.44;1026284;28;20031;-66
2023/02/08 00:47:32;;;;;;;15.47;7.10;;;;;;;-6.29;100.00;97607.38;1033686;28;20447;-66
2023/02/08 00:48:02;;;;;;;15.60;7.97;;;;;;;-6.31;100.00;97609.22;1032559;28;20037;-69
2023/02/08 00:48:33;;;;;;;13.43;6.87;;;;;;;-6.33;100.00;97611.09;1028841;28;20026;-66
2023/02/08 00:49:03;;;;;;;17.10;7.60;;;;;;;-6.30;100.00;97603.22;1030631;28;20034;-64
2023/02/08 00:49:35;;;;;;;16.33;8.13;;;;;;;-6.28;100.00;97605.63;1030846;28;20049;-65
2023/02/08 00:50:05;;;;;;;17.85;7.65;;;;;;;-6.30;100.00;97593.00;1038452;28;20037;-66
2023/02/08 00:50:36;;;;;;;15.80;7.23;;;;;;;-6.24;100.00;97607.03;1032477;28;20026;-65
2023/02/08 00:51:14;;;;;;;19.13;6.73;;;;;;;-6.24;100.00;97607.03;1033994;28;20088;-65
2023/02/08 00:51:44;;;;;;;13.80;7.05;;;;;;;-6.24;100.00;97607.84;1021507;29;20094;-65
2023/02/08 00:52:15;;;;;;;15.73;7.60;;;;;;;-6.22;100.00;97600.91;1024684;28;20122;-65
2023/02/08 00:52:45;;;;;;;14.30;7.47;;;;;;;-6.24;100.00;97612.16;1030683;28;20492;-65
2023/02/08 00:53:16;;;;;;;15.80;7.90;;;;;;;-6.24;100.00;97607.03;1030773;28;20023;-67
2023/02/08 00:53:47;;;;;;;18.87;7.90;;;;;;;-6.30;100.00;97600.66;1034686;28;20018;-64
2023/02/08 00:54:18;;;;;;;16.60;7.80;;;;;;;-6.28;100.00;97608.19;1026459;28;20217;-66
2023/02/08 00:54:48;;;;;;;17.40;7.72;;;;;;;-6.30;100.00;97603.22;1026482;28;20042;-65
2023/02/08 00:55:19;;;;;;;16.27;7.00;;;;;;;-6.31;100.00;97609.22;1022625;29;20544;-68
2023/02/08 00:55:51;;;;;;;18.13;7.80;;;;;;;-6.32;100.00;97609.34;1030638;28;20034;-65
2023/02/08 00:56:21;;;;;;;17.95;7.35;;;;;;;-6.30;100.00;97607.50;1030662;28;20049;-65
2023/02/08 00:56:52;;;;;;;17.17;8.17;;;;;;;-6.30;100.00;97604.97;1029799;28;20027;-66
2023/02/08 00:57:22;;;;;;;25.07;8.50;;;;;;;-6.28;100.00;97605.63;1022581;28;20586;-65
2023/02/08 00:57:53;;;;;;;16.73;7.53;;;;;;;-6.27;100.00;97612.38;1026533;28;20038;-64
2023/02/08 00:58:26;;;;;;;16.30;7.82;;;;;;;-6.28;100.00;97611.56;1025941;28;20060;-66
2023/02/08 00:58:56;;;;;;;16.73;8.03;;;;;;;-6.28;100.00;97608.19;1030571;28;20689;-66
2023/02/08 00:59:27;;;;;;;18.93;7.60;;;;;;;-6.30;100.00;97608.31;1030921;28;20026;-65
2023/02/08 00:59:57;;;;;;;22.27;8.77;;;;;;;-6.30;100.00;97610.06;1031027;28;20034;-66
2023/02/08 01:00:27;;;;;;;17.03;8.30;;;;;;;-6.31;100.00;97610.97;1035181;28;20094;-66
2023/02/08 01:00:58;;;;;;;16.27;8.13;;;;;;;-6.34;100.00;97599.22;1038634;28;20025;-67
2023/02/08 01:01:29;;;;;;;18.40;6.83;;;;;;;-6.25;100.00;97610.53;1036462;28;20029;-65
2023/02/08 01:01:59;;;;;;;16.37;7.23;;;;;;;-6.28;100.00;97605.63;1030151;28;20034;-66
2023/02/08 01:02:30;;;;;;;15.80;7.33;;;;;;;-6.29;100.00;97609.13;1026423;28;20300;-67
2023/02/08 01:03:01;;;;;;;17.67;7.50;;;;;;;-6.30;100.00;97607.50;1030342;28;20026;-65
2023/02/08 01:03:36;;;;;;;17.37;8.20;;;;;;;-6.26;100.00;97611.47;1030689;28;20724;-66
2023/02/08 01:04:07;;;;;;;19.58;8.23;;;;;;;-6.28;100.00;97605.63;1030785;28;20022;-66
2023/02/08 01:04:37;;;;;;;17.47;7.40;;;;;;;-6.29;100.00;97609.13;1026339;28;20031;-66
2023/02/08 01:05:07;;;;;;;19.23;8.27;;;;;;;-6.29;100.00;97606.56;1026172;28;20041;-66
2023/02/08 01:05:38;;;;;;;19.03;7.30;;;;;;;-6.30;100.00;97608.31;1025270;28;20035;-69
2023/02/08 01:06:11;;;;;;;17.83;7.77;;;;;;;-6.30;100.00;97610.06;1026441;28;20403;-65
2023/02/08 01:06:42;;;;;;;19.98;7.43;;;;;;;-6.31;100.00;97606.66;1027007;28;20039;-66
2023/02/08 01:07:12;;;;;;;18.57;8.03;;;;;;;-6.29;100.00;97609.94;1026734;28;20047;-66
2023/02/08 01:07:43;;;;;;;13.17;6.57;;;;;;;-6.32;100.00;97599.13;1037832;28;20073;-67
2023/02/08 01:08:13;;;;;;;17.23;7.80;;;;;;;-6.29;100.00;97611.69;1037574;28;20025;-66
2023/02/08 01:08:44;;;;;;;14.50;7.47;;;;;;;-6.32;100.00;97601.69;1035132;28;20026;-66
2023/02/08 01:09:15;;;;;;;17.57;7.77;;;;;;;-6.32;100.00;97604.25;1030249;28;20030;-65
2023/02/08 01:09:45;;;;;;;13.57;7.30;;;;;;;-6.32;100.00;97609.34;1026985;28;20057;-65
2023/02/08 01:10:15;;;;;;;20.37;8.80;;;;;;;-6.31;100.00;97609.22;1026037;28;20039;-66
2023/02/08 01:10:46;;;;;;;16.47;8.27;;;;;;;-6.33;100.00;97605.97;1026463;28;20027;-68
2023/02/08 01:11:21;;;;;;;17.03;8.47;;;;;;;-6.33;100.00;97607.72;1030513;28;20586;-66
2023/02/08 01:11:51;;;;;;;18.02;7.45;;;;;;;-6.35;100.00;97609.56;1029512;28;20024;-66
2023/02/08 01:12:22;;;;;;;16.07;7.57;;;;;;;-6.35;100.00;97612.13;1029426;28;20164;-66
2023/02/08 01:12:52;;;;;;;19.57;8.70;;;;;;;-6.36;100.00;97613.06;1029830;28;20022;-67
2023/02/08 01:13:22;;;;;;;18.57;8.13;;;;;;;-6.38;100.00;97609.78;1030201;28;20018;-67
2023/02/08 01:13:56;;;;;;;19.07;7.97;;;;;;;-6.36;100.00;97611.31;1034989;28;20025;-65
2023/02/08 01:14:26;;;;;;;17.70;8.40;;;;;;;-6.33;100.00;97613.66;1034651;28;20105;-66
2023/02/08 01:14:57;;;;;;;18.13;8.53;;;;;;;-6.39;100.00;97603.06;1034832;28;20129;-65
2023/02/08 01:15:27;;;;;;;15.07;8.00;;;;;;;-6.36;100.00;97613.88;1037580;28;20068;-66
2023/02/08 01:16:11;;;;;;;14.77;6.80;;;;;;;-6.36;100.00;97613.06;1030253;28;20407;-65
2023/02/08 01:16:42;;;;;;;18.70;8.95;;;;;;;-6.36;100.00;97608.75;1017995;29;20074;-65
2023/02/08 01:17:12;;;;;;;23.20;8.40;;;;;;;-6.35;100.00;97614.66;1018061;29;20035;-66
2023/02/08 01:17:43;;;;;;;16.97;8.30;;;;;;;-6.38;100.00;97614.88;1022249;28;20489;-67
2023/02/08 01:18:13;;;;;;;20.57;8.30;;;;;;;-6.38;100.00;97612.34;1026755;28;20023;-68
2023/02/08 01:18:45;;;;;;;17.43;8.60;;;;;;;-6.44;100.00;97606.75;1030448;28;20018;-65
2023/02/08 01:19:17;;;;;;;19.60;8.77;;;;;;;-6.38;100.00;97609.78;1026726;28;20436;-66
2023/02/08 01:19:47;;;;;;;20.63;7.72;;;;;;;-6.48;100.00;97602.78;1030104;28;20022;-66
2023/02/08 01:20:18;;;;;;;17.37;8.20;;;;;;;-6.42;100.00;97614.28;1034439;28;20033;-65
2023/02/08 01:20:48;;;;;;;15.70;7.63;;;;;;;-6.44;100.00;97611.88;1030811;28;20110;-65
2023/02/08 01:21:23;;;;;;;18.80;8.40;;;;;;;-6.51;100.00;97603.00;1026638;28;20026;-66
2023/02/08 01:21:54;;;;;;;13.60;7.50;;;;;;;-6.43;100.00;97603.28;1022368;29;20618;-67
2023/02/08 01:22:28;;;;;;;20.58;9.05;;;;;;;-6.44;100.00;97603.38;1020462;28;20020;-66
2023/02/08 01:22:59;;;;;;;23.80;8.82;;;;;;;-6.45;100.00;97609.41;1027623;28;20110;-68
2023/02/08 01:23:29;;;;;;;17.17;8.17;;;;;;;-6.46;100.00;97608.59;1029872;28;20033;-65
2023/02/08 01:24:00;;;;;;;20.00;9.17;;;;;;;-6.48;100.00;97605.31;1023371;28;20019;-66
2023/02/08 01:24:30;;;;;;;18.43;8.20;;;;;;;-6.47;100.00;97611.25;1026442;28;20023;-66
2023/02/08 01:25:01;;;;;;;18.43;8.80;;;;;;;-6.48;100.00;97610.44;1022521;28;20070;-68
2023/02/08 01:25:31;;;;;;;21.77;8.47;;;;;;;-6.47;100.00;97612.09;1022232;28;20019;-66
2023/02/08 01:26:03;;;;;;;24.80;9.47;;;;;;;-6.45;100.00;97604.31;1029943;28;20010;-66
2023/02/08 01:26:33;;;;;;;18.80;8.45;;;;;;;-6.51;100.00;97600.44;1026407;28;20030;-64
2023/02/08 01:27:03;;;;;;;19.00;8.70;;;;;;;-6.47;100.00;97613.78;1026016;28;20400;-63
2023/02/08 01:27:35;;;;;;;23.53;8.73;;;;;;;-6.45;100.00;97609.41;1026435;28;20019;-66
2023/02/08 01:28:05;;;;;;;18.45;8.48;;;;;;;-6.47;100.00;97612.09;1030724;28;20486;-64
2023/02/08 01:28:36;;;;;;;24.60;9.30;;;;;;;-6.49;100.00;97613.91;1034526;28;20080;-65
2023/02/08 01:29:07;;;;;;;20.60;8.77;;;;;;;-6.55;100.00;97601.59;1026085;28;20023;-66
2023/02/08 01:29:37;;;;;;;18.63;7.82;;;;;;;-6.48;100.00;97612.19;1022062;28;20023;-66
2023/02/08 01:30:09;;;;;;;18.10;8.30;;;;;;;-6.46;100.00;97613.69;1026340;28;20600;-65
2023/02/08 01:30:39;;;;;;;23.15;9.30;;;;;;;-6.45;100.00;97614.50;1026684;28;20587;-67
2023/02/08 01:31:17;;;;;;;16.87;8.30;;;;;;;-6.49;100.00;97611.38;1026303;28;20019;-65
2023/02/08 01:31:47;;;;;;;22.17;9.45;;;;;;;-6.50;100.00;97619.97;1026526;28;20639;-65
2023/02/08 01:32:18;;;;;;;17.33;8.13;;;;;;;-6.48;100.00;97617.28;1027399;28;20026;-65
2023/02/08 01:32:48;;;;;;;17.33;8.60;;;;;;;-6.50;100.00;97612.31;1038139;28;20721;-66
2023/02/08 01:33:19;;;;;;;18.90;8.60;;;;;;;-6.49;100.00;97619.03;1031529;28;20032;-66
2023/02/08 01:33:49;;;;;;;19.00;7.50;;;;;;;-6.54;100.00;97602.41;1030217;28;20046;-65
2023/02/08 01:34:20;;;;;;;19.30;8.53;;;;;;;-6.50;100.00;97614.84;1026017;28;20105;-65
2023/02/08 01:34:50;;;;;;;16.63;7.83;;;;;;;-6.49;100.00;97613.91;1026808;28;20026;-68
2023/02/08 01:35:21;;;;;;;18.27;7.63;;;;;;;-6.46;100.00;97618.00;1022646;29;20082;-66
2023/02/08 01:35:51;;;;;;;20.23;8.30;;;;;;;-6.49;100.00;97621.59;1022693;28;20050;-67
2023/02/08 01:36:22;;;;;;;17.30;8.83;;;;;;;-6.52;100.00;97616.69;1022320;29;20031;-65
2023/02/08 01:36:52;;;;;;;17.40;8.53;;;;;;;-6.52;100.00;97614.13;1025991;28;20162;-65
2023/02/08 01:37:26;;;;;;;18.67;9.43;;;;;;;-6.52;100.00;97621.78;1026329;28;20842;-65
2023/02/08 01:37:56;;;;;;;17.23;8.95;;;;;;;-6.51;100.00;97620.88;1026408;28;20030;-65
2023/02/08 01:38:27;;;;;;;21.47;8.90;;;;;;;-6.52;100.00;97619.25;1029490;28;20571;-66
2023/02/08 01:38:57;;;;;;;18.03;8.80;;;;;;;-6.55;100.00;97614.34;1027524;28;20106;-68
2023/02/08 01:39:28;;;;;;;18.23;8.47;;;;;;;-6.52;100.00;97621.00;1030761;28;20472;-65
2023/02/08 01:39:58;;;;;;;19.37;9.27;;;;;;;-6.53;100.00;97616.81;1034659;28;20033;-65
2023/02/08 01:40:32;;;;;;;16.53;8.50;;;;;;;-6.51;100.00;97620.06;1030391;28;20090;-67
2023/02/08 01:41:03;;;;;;;16.75;8.35;;;;;;;-6.52;100.00;97616.69;1023815;28;20027;-66
2023/02/08 01:41:35;;;;;;;17.30;8.05;;;;;;;-6.56;100.00;97601.72;1024091;28;20796;-68
2023/02/08 01:42:15;;;;;;;21.20;9.23;;;;;;;-6.53;100.00;97612.53;1026570;28;20023;-66
2023/02/08 01:42:45;;;;;;;20.73;9.25;;;;;;;-6.55;100.00;97618.66;1023028;28;20031;-68
2023/02/08 01:43:21;;;;;;;22.90;9.33;;;;;;;-6.57;100.00;97615.38;1028021;28;20053;-67
2023/02/08 01:44:10;;;;;;;19.85;9.07;;;;;;;-6.64;100.00;97604.78;1028002;28;20783;-67
2023/02/08 01:45:15;;;;;;;22.40;8.98;;;;;;;-6.58;100.00;97614.56;1025843;28;20869;-67
2023/02/08 01:45:45;;;;;;;21.05;9.32;;;;;;;-6.64;100.00;97609.91;1032170;28;20022;-67
2023/02/08 01:46:16;;;;;;;20.80;9.23;;;;;;;-6.64;100.00;97615.00;1033489;28;20030;-65
2023/02/08 01:46:48;;;;;;;23.10;9.67;;;;;;;-6.71;100.00;97606.16;1025328;28;20098;-66
2023/02/08 01:47:18;;;;;;;17.75;8.73;;;;;;;-6.65;100.00;97610.81;1026223;28;20023;-65
2023/02/08 01:48:10;;;;;;;21.20;8.50;;;;;;;-6.69;100.00;97607.69;1022312;29;20815;-65
2023/02/08 01:48:40;;;;;;;19.95;9.15;;;;;;;-6.69;100.00;97604.31;1022390;29;20521;-65
2023/02/08 01:49:29;;;;;;;19.47;9.17;;;;;;;-6.66;100.00;97615.13;1029193;28;20038;-65
2023/02/08 01:49:59;;;;;;;20.48;9.63;;;;;;;-6.68;100.00;97608.50;1034484;28;20113;-66
2023/02/08 01:50:33;;;;;;;22.03;8.93;;;;;;;-6.72;100.00;97607.09;1028755;28;20027;-66
2023/02/08 01:51:15;;;;;;;22.80;9.98;;;;;;;-6.75;100.00;97603.00;1014129;29;20035;-66
2023/02/08 01:52:06;;;;;;;19.25;9.48;;;;;;;-6.73;100.00;97600.34;1018424;29;20096;-65
2023/02/08 01:52:37;;;;;;;17.33;8.82;;;;;;;-6.72;100.00;97614.75;1030411;28;20477;-65
2023/02/08 01:53:07;;;;;;;21.40;9.43;;;;;;;-6.69;100.00;97612.78;1032937;28;20022;-66
2023/02/08 01:53:38;;;;;;;20.47;8.30;;;;;;;-6.75;100.00;97600.44;1026494;28;20838;-67
2023/02/08 01:54:09;;;;;;;19.83;10.27;;;;;;;-6.71;100.00;97616.34;1026466;28;20023;-65
2023/02/08 01:54:43;;;;;;;20.52;9.07;;;;;;;-6.69;100.00;97611.97;1031869;28;20525;-66
2023/02/08 01:55:16;;;;;;;19.55;9.15;;;;;;;-6.71;100.00;97608.69;1030150;28;20089;-67
2023/02/08 01:55:47;;;;;;;24.80;9.80;;;;;;;-6.77;100.00;97601.47;1025966;28;20147;-66
2023/02/08 01:56:24;;;;;;;19.00;8.93;;;;;;;-6.75;100.00;97608.09;1023300;28;20142;-66
2023/02/08 01:56:55;;;;;;;23.15;10.02;;;;;;;-6.80;100.00;97604.28;1025641;28;20086;-66
2023/02/08 01:57:25;;;;;;;20.27;9.90;;;;;;;-6.73;100.00;97608.81;1026296;28;20027;-65
2023/02/08 01:57:57;;;;;;;19.50;9.10;;;;;;;-6.74;100.00;97614.03;1018350;29;20494;-67
2023/02/08 01:58:28;;;;;;;20.40;9.50;;;;;;;-6.81;100.00;97600.06;1014551;29;20020;-66
2023/02/08 01:59:00;;;;;;;21.77;9.30;;;;;;;-6.74;100.00;97604.66;1026346;28;20029;-67
2023/02/08 01:59:51;;;;;;;26.15;10.93;;;;;;;-6.81;100.00;97598.31;1026729;28;20057;-65
2023/02/08 02:00:22;;;;;;;21.73;9.48;;;;;;;-6.80;100.00;97594.06;1029558;28;20516;-64
2023/02/08 02:00:52;;;;;;;20.33;9.37;;;;;;;-6.74;100.00;97606.38;1019405;28;20028;-66
2023/02/08 02:01:23;;;;;;;20.57;9.70;;;;;;;-6.83;100.00;97599.38;1025996;28;20093;-65
2023/02/08 02:01:55;;;;;;;21.13;9.23;;;;;;;-6.83;100.00;97596.81;1034713;28;20080;-65
2023/02/08 02:02:25;;;;;;;20.42;9.43;;;;;;;-6.81;100.00;97605.16;1028712;28;20041;-64
2023/02/08 02:02:56;;;;;;;19.10;8.97;;;;;;;-6.92;100.00;97590.63;1019942;28;20046;-62
2023/02/08 02:03:26;;;;;;;20.60;10.00;;;;;;;-6.84;100.00;97602.84;1016032;29;20027;-66
2023/02/08 02:04:00;;;;;;;22.07;9.07;;;;;;;-6.85;100.00;97601.22;1018481;28;20100;-67
2023/02/08 02:04:30;;;;;;;23.27;9.32;;;;;;;-6.84;100.00;97603.69;1026406;28;20018;-66
2023/02/08 02:05:01;;;;;;;21.67;9.90;;;;;;;-6.85;100.00;97601.22;1034432;28;20531;-64
2023/02/08 02:05:36;;;;;;;19.20;9.13;;;;;;;-6.88;100.00;97594.56;1029207;28;20014;-66
2023/02/08 02:06:09;;;;;;;20.88;9.73;;;;;;;-6.85;100.00;97602.03;1030026;28;20042;-65
2023/02/08 02:06:42;;;;;;;21.23;9.68;;;;;;;-6.83;100.00;97595.09;1028393;28;20026;-66
2023/02/08 02:07:13;;;;;;;20.40;9.65;;;;;;;-6.84;100.00;97600.28;1026028;28;20019;-65
2023/02/08 02:07:43;;;;;;;23.07;10.30;;;;;;;-6.91;100.00;97587.97;1030054;28;20108;-65
2023/02/08 02:08:14;;;;;;;20.80;9.70;;;;;;;-6.85;100.00;97596.91;1022146;28;20043;-66
2023/02/08 02:08:50;;;;;;;23.90;10.40;;;;;;;-6.85;100.00;97598.66;1030270;28;20022;-65
2023/02/08 02:09:41;;;;;;;25.20;10.15;;;;;;;-6.89;100.00;97600.63;1029411;28;20026;-66
2023/02/08 02:10:19;;;;;;;20.20;8.90;;;;;;;-6.91;100.00;97598.19;1033262;28;20072;-66
2023/02/08 02:10:50;;;;;;;22.92;9.07;;;;;;;-6.91;100.00;97602.44;1030055;28;20029;-65
2023/02/08 02:11:26;;;;;;;19.75;9.38;;;;;;;-6.94;100.00;97595.84;1026084;28;20026;-66
2023/02/08 02:11:56;;;;;;;22.13;10.13;;;;;;;-6.94;100.00;97593.28;1025127;28;20035;-67
2023/02/08 02:12:28;;;;;;;19.93;8.63;;;;;;;-6.92;100.00;97596.53;1018325;29;20063;-67
2023/02/08 02:13:16;;;;;;;23.88;10.35;;;;;;;-6.93;100.00;97600.00;1029251;28;20078;-66
2023/02/08 02:13:49;;;;;;;21.17;8.70;;;;;;;-7.00;100.00;97590.34;1025632;28;20038;-67
2023/02/08 02:14:22;;;;;;;20.05;9.65;;;;;;;-7.02;100.00;97587.91;1022214;29;20401;-67
2023/02/08 02:14:53;;;;;;;21.85;10.13;;;;;;;-7.01;100.00;97588.69;1022104;29;20031;-66
2023/02/08 02:15:23;;;;;;;20.70;9.77;;;;;;;-6.97;100.00;97593.50;1034248;28;20085;-67
2023/02/08 02:15:54;;;;;;;23.57;10.20;;;;;;;-7.00;100.00;97590.34;1033744;28;20112;-64
2023/02/08 02:16:24;;;;;;;25.43;10.00;;;;;;;-7.02;100.00;97590.44;1029987;28;20546;-62
2023/02/08 02:16:55;;;;;;;21.50;9.53;;;;;;;-7.03;100.00;97591.38;1033120;28;20057;-65
2023/02/08 02:17:25;;;;;;;27.67;10.93;;;;;;;-7.02;100.00;97595.53;1030109;28;20412;-64
2023/02/08 02:17:56;;;;;;;18.27;8.83;;;;;;;-7.04;100.00;97586.38;1034020;28;20136;-66
2023/02/08 02:18:29;;;;;;;23.47;9.93;;;;;;;-7.05;100.00;97590.66;1038344;28;20054;-66
2023/02/08 02:19:00;;;;;;;23.98;9.65;;;;;;;-7.07;100.00;97592.53;1030081;28;20065;-65
2023/02/08 02:19:32;;;;;;;19.53;9.07;;;;;;;-7.06;100.00;97591.59;1033800;28;20080;-66
2023/02/08 02:20:24;;;;;;;23.45;9.90;;;;;;;-7.06;100.00;97595.88;1026005;28;20042;-67
2023/02/08 02:21:09;;;;;;;19.00;9.23;;;;;;;-7.05;100.00;97590.66;1028315;28;20018;-67
2023/02/08 02:22:01;;;;;;;20.92;9.45;;;;;;;-7.01;100.00;97594.63;1026964;28;20131;-64
2023/02/08 02:22:31;;;;;;;22.05;9.18;;;;;;;-7.05;100.00;97590.66;1034431;28;20025;-65
2023/02/08 02:23:26;;;;;;;24.47;9.83;;;;;;;-7.03;100.00;97593.94;1029878;28;20058;-64
2023/02/08 02:24:25;;;;;;;20.50;8.88;;;;;;;-7.05;100.00;97588.09;1030464;28;20037;-66
2023/02/08 02:25:04;;;;;;;18.02;8.32;;;;;;;-7.05;100.00;97587.28;1033756;28;20484;-65
2023/02/08 02:25:55;;;;;;;25.02;10.13;;;;;;;-7.19;100.00;97568.66;1035508;28;20034;-65
2023/02/08 02:26:50;;;;;;;21.25;10.13;;;;;;;-7.06;100.00;97589.03;1038647;28;20031;-64
2023/02/08 02:27:27;;;;;;;23.98;9.32;;;;;;;-7.07;100.00;97584.88;1030830;28;20212;-65
2023/02/08 02:28:13;;;;;;;28.30;9.95;;;;;;;-7.06;100.00;97583.94;1026702;28;20025;-63
2023/02/08 02:29:04;;;;;;;22.02;9.60;;;;;;;-7.08;100.00;97585.75;1030562;28;20030;-63
2023/02/08 02:29:35;;;;;;;21.45;9.95;;;;;;;-7.08;100.00;97590.88;1036304;28;20038;-67